sensor_id;sensor_type;location;lat;lon;timestamp;P1;durP1;ratioP1;P2;durP2;ratioP2
25123;SDS011;13104;51.030;4.686;2022-10-28T00:01:25;16.60;;;5.07;;
25123;SDS011;13104;51.030;4.686;2022-10-28T00:03:53;9.63;;;4.55;;
25123;SDS011;13104;51.030;4.686;2022-10-28T00:06:21;14.20;;;4.50;;
25123;SDS011;13104;51.030;4.686;2022-10-28T00:08:47;15.40;;;4.78;;
25123;SDS011;13104;51.030;4.686;2022-10-28T00:11:20;12.75;;;4.38;;
25123;SDS011;13104;51.030;4.686;2022-10-28T00:13:46;16.83;;;4.28;;
25123;SDS011;13104;51.030;4.686;2022-10-28T00:16:19;20.23;;;4.28;;
25123;SDS011;13104;51.030;4.686;2022-10-28T00:18:46;18.52;;;4.90;;
25123;SDS011;13104;51.030;4.686;2022-10-28T00:21:13;13.32;;;4.32;;
25123;SDS011;13104;51.030;4.686;2022-10-28T00:23:40;11.25;;;4.57;;
25123;SDS011;13104;51.030;4.686;2022-10-28T00:26:16;14.23;;;4.28;;
25123;SDS011;13104;51.030;4.686;2022-10-28T00:28:46;14.02;;;4.13;;
25123;SDS011;13104;51.030;4.686;2022-10-28T00:31:13;13.63;;;4.45;;
25123;SDS011;13104;51.030;4.686;2022-10-28T00:33:40;14.48;;;4.65;;
25123;SDS011;13104;51.030;4.686;2022-10-28T00:36:17;17.63;;;4.30;;
25123;SDS011;13104;51.030;4.686;2022-10-28T00:38:44;10.65;;;4.28;;
25123;SDS011;13104;51.030;4.686;2022-10-28T00:41:11;10.82;;;4.40;;
25123;SDS011;13104;51.030;4.686;2022-10-28T00:43:39;15.82;;;4.05;;
25123;SDS011;13104;51.030;4.686;2022-10-28T00:46:07;13.32;;;4.03;;
25123;SDS011;13104;51.030;4.686;2022-10-28T00:48:38;19.58;;;4.55;;
25123;SDS011;13104;51.030;4.686;2022-10-28T00:51:05;16.38;;;4.35;;
25123;SDS011;13104;51.030;4.686;2022-10-28T00:53:33;18.13;;;4.40;;
25123;SDS011;13104;51.030;4.686;2022-10-28T00:55:59;13.48;;;4.32;;
25123;SDS011;13104;51.030;4.686;2022-10-28T00:58:26;12.10;;;4.22;;
25123;SDS011;13104;51.030;4.686;2022-10-28T01:00:53;16.08;;;4.55;;
25123;SDS011;13104;51.030;4.686;2022-10-28T01:03:19;13.38;;;4.82;;
25123;SDS011;13104;51.030;4.686;2022-10-28T01:05:46;9.93;;;4.25;;
25123;SDS011;13104;51.030;4.686;2022-10-28T01:08:12;15.27;;;4.28;;
25123;SDS011;13104;51.030;4.686;2022-10-28T01:15:52;18.30;;;4.43;;
25123;SDS011;13104;51.030;4.686;2022-10-28T01:26:24;16.55;;;4.55;;
25123;SDS011;13104;51.030;4.686;2022-10-28T01:31:35;14.05;;;3.95;;
25123;SDS011;13104;51.030;4.686;2022-10-28T01:34:09;18.67;;;4.13;;
25123;SDS011;13104;51.030;4.686;2022-10-28T01:36:56;16.60;;;4.18;;
25123;SDS011;13104;51.030;4.686;2022-10-28T01:39:30;16.27;;;4.38;;
25123;SDS011;13104;51.030;4.686;2022-10-28T01:42:16;12.43;;;4.45;;
25123;SDS011;13104;51.030;4.686;2022-10-28T01:44:47;17.55;;;5.15;;
25123;SDS011;13104;51.030;4.686;2022-10-28T01:52:16;14.05;;;4.22;;
25123;SDS011;13104;51.030;4.686;2022-10-28T01:54:44;25.60;;;4.85;;
25123;SDS011;13104;51.030;4.686;2022-10-28T01:57:11;17.60;;;4.72;;
25123;SDS011;13104;51.030;4.686;2022-10-28T01:59:38;15.90;;;4.85;;
25123;SDS011;13104;51.030;4.686;2022-10-28T02:02:04;16.60;;;4.65;;
25123;SDS011;13104;51.030;4.686;2022-10-28T02:04:30;16.33;;;4.80;;
25123;SDS011;13104;51.030;4.686;2022-10-28T02:06:57;13.93;;;4.95;;
25123;SDS011;13104;51.030;4.686;2022-10-28T02:12:02;13.20;;;4.80;;
25123;SDS011;13104;51.030;4.686;2022-10-28T02:17:15;14.70;;;4.63;;
25123;SDS011;13104;51.030;4.686;2022-10-28T02:19:48;13.40;;;4.38;;
25123;SDS011;13104;51.030;4.686;2022-10-28T02:25:03;17.92;;;4.70;;
25123;SDS011;13104;51.030;4.686;2022-10-28T02:27:33;19.00;;;5.05;;
25123;SDS011;13104;51.030;4.686;2022-10-28T02:30:04;12.95;;;4.65;;
25123;SDS011;13104;51.030;4.686;2022-10-28T02:32:32;16.17;;;4.75;;
25123;SDS011;13104;51.030;4.686;2022-10-28T02:35:02;14.60;;;4.07;;
25123;SDS011;13104;51.030;4.686;2022-10-28T02:37:30;14.38;;;4.28;;
25123;SDS011;13104;51.030;4.686;2022-10-28T02:39:58;18.38;;;4.78;;
25123;SDS011;13104;51.030;4.686;2022-10-28T02:42:26;18.60;;;4.60;;
25123;SDS011;13104;51.030;4.686;2022-10-28T02:45:01;13.73;;;3.83;;
25123;SDS011;13104;51.030;4.686;2022-10-28T02:47:30;14.20;;;4.25;;
25123;SDS011;13104;51.030;4.686;2022-10-28T02:49:58;16.55;;;4.28;;
25123;SDS011;13104;51.030;4.686;2022-10-28T02:52:26;14.27;;;4.75;;
25123;SDS011;13104;51.030;4.686;2022-10-28T02:55:00;15.60;;;4.93;;
25123;SDS011;13104;51.030;4.686;2022-10-28T02:57:32;17.75;;;4.68;;
25123;SDS011;13104;51.030;4.686;2022-10-28T03:00:00;17.15;;;4.25;;
25123;SDS011;13104;51.030;4.686;2022-10-28T03:02:27;21.67;;;5.13;;
25123;SDS011;13104;51.030;4.686;2022-10-28T03:04:53;17.05;;;5.35;;
25123;SDS011;13104;51.030;4.686;2022-10-28T03:07:19;13.80;;;4.32;;
25123;SDS011;13104;51.030;4.686;2022-10-28T03:09:45;14.13;;;5.47;;
25123;SDS011;13104;51.030;4.686;2022-10-28T03:12:12;16.70;;;5.65;;
25123;SDS011;13104;51.030;4.686;2022-10-28T03:14:39;15.52;;;5.00;;
25123;SDS011;13104;51.030;4.686;2022-10-28T03:17:06;19.60;;;5.07;;
25123;SDS011;13104;51.030;4.686;2022-10-28T03:19:32;21.13;;;6.18;;
25123;SDS011;13104;51.030;4.686;2022-10-28T03:21:58;12.35;;;5.10;;
25123;SDS011;13104;51.030;4.686;2022-10-28T03:24:24;18.27;;;6.00;;
25123;SDS011;13104;51.030;4.686;2022-10-28T03:26:50;17.13;;;4.93;;
25123;SDS011;13104;51.030;4.686;2022-10-28T03:29:16;12.80;;;4.90;;
25123;SDS011;13104;51.030;4.686;2022-10-28T03:31:42;11.50;;;4.78;;
25123;SDS011;13104;51.030;4.686;2022-10-28T03:34:08;16.38;;;5.20;;
25123;SDS011;13104;51.030;4.686;2022-10-28T03:36:34;16.15;;;4.68;;
25123;SDS011;13104;51.030;4.686;2022-10-28T03:39:01;14.95;;;5.30;;
25123;SDS011;13104;51.030;4.686;2022-10-28T03:41:27;15.80;;;5.53;;
25123;SDS011;13104;51.030;4.686;2022-10-28T03:43:53;15.25;;;5.15;;
25123;SDS011;13104;51.030;4.686;2022-10-28T03:46:19;10.65;;;4.72;;
25123;SDS011;13104;51.030;4.686;2022-10-28T03:48:45;18.83;;;5.20;;
25123;SDS011;13104;51.030;4.686;2022-10-28T03:51:11;18.80;;;4.95;;
25123;SDS011;13104;51.030;4.686;2022-10-28T03:53:37;14.85;;;5.03;;
25123;SDS011;13104;51.030;4.686;2022-10-28T03:56:03;20.73;;;5.00;;
25123;SDS011;13104;51.030;4.686;2022-10-28T03:58:30;16.70;;;5.22;;
25123;SDS011;13104;51.030;4.686;2022-10-28T04:00:56;14.57;;;5.18;;
25123;SDS011;13104;51.030;4.686;2022-10-28T04:03:22;13.82;;;5.28;;
25123;SDS011;13104;51.030;4.686;2022-10-28T04:05:49;18.25;;;5.03;;
25123;SDS011;13104;51.030;4.686;2022-10-28T04:08:15;12.52;;;4.75;;
25123;SDS011;13104;51.030;4.686;2022-10-28T04:10:42;13.43;;;5.05;;
25123;SDS011;13104;51.030;4.686;2022-10-28T04:13:08;15.00;;;4.82;;
25123;SDS011;13104;51.030;4.686;2022-10-28T04:15:34;17.88;;;5.22;;
25123;SDS011;13104;51.030;4.686;2022-10-28T04:18:00;17.33;;;4.88;;
25123;SDS011;13104;51.030;4.686;2022-10-28T04:20:26;11.90;;;4.53;;
25123;SDS011;13104;51.030;4.686;2022-10-28T04:22:53;12.95;;;4.72;;
25123;SDS011;13104;51.030;4.686;2022-10-28T04:25:19;14.13;;;4.43;;
25123;SDS011;13104;51.030;4.686;2022-10-28T04:27:46;17.70;;;4.88;;
25123;SDS011;13104;51.030;4.686;2022-10-28T04:30:12;13.35;;;4.95;;
25123;SDS011;13104;51.030;4.686;2022-10-28T04:32:39;16.42;;;5.10;;
25123;SDS011;13104;51.030;4.686;2022-10-28T04:35:05;11.70;;;4.90;;
25123;SDS011;13104;51.030;4.686;2022-10-28T04:37:32;14.32;;;4.63;;
25123;SDS011;13104;51.030;4.686;2022-10-28T04:39:58;9.82;;;4.68;;
25123;SDS011;13104;51.030;4.686;2022-10-28T04:42:24;9.15;;;4.57;;
25123;SDS011;13104;51.030;4.686;2022-10-28T04:44:50;32.47;;;5.47;;
25123;SDS011;13104;51.030;4.686;2022-10-28T04:47:16;37.58;;;5.25;;
25123;SDS011;13104;51.030;4.686;2022-10-28T04:49:42;20.73;;;5.20;;
25123;SDS011;13104;51.030;4.686;2022-10-28T04:52:09;13.45;;;4.60;;
25123;SDS011;13104;51.030;4.686;2022-10-28T04:54:35;13.98;;;4.57;;
25123;SDS011;13104;51.030;4.686;2022-10-28T04:57:01;11.90;;;4.80;;
25123;SDS011;13104;51.030;4.686;2022-10-28T04:59:27;12.32;;;4.35;;
25123;SDS011;13104;51.030;4.686;2022-10-28T05:01:53;15.75;;;4.28;;
25123;SDS011;13104;51.030;4.686;2022-10-28T05:04:19;12.10;;;4.35;;
25123;SDS011;13104;51.030;4.686;2022-10-28T05:06:45;17.02;;;4.75;;
25123;SDS011;13104;51.030;4.686;2022-10-28T05:09:12;15.30;;;4.43;;
25123;SDS011;13104;51.030;4.686;2022-10-28T05:11:38;9.27;;;4.50;;
25123;SDS011;13104;51.030;4.686;2022-10-28T05:14:04;14.00;;;4.45;;
25123;SDS011;13104;51.030;4.686;2022-10-28T05:16:30;12.55;;;4.47;;
25123;SDS011;13104;51.030;4.686;2022-10-28T05:18:56;15.43;;;4.70;;
25123;SDS011;13104;51.030;4.686;2022-10-28T05:21:23;19.10;;;5.07;;
25123;SDS011;13104;51.030;4.686;2022-10-28T05:23:49;13.48;;;5.32;;
25123;SDS011;13104;51.030;4.686;2022-10-28T05:26:15;14.65;;;5.10;;
25123;SDS011;13104;51.030;4.686;2022-10-28T05:28:41;12.95;;;4.97;;
25123;SDS011;13104;51.030;4.686;2022-10-28T05:31:07;17.65;;;5.45;;
25123;SDS011;13104;51.030;4.686;2022-10-28T05:33:33;15.60;;;5.15;;
25123;SDS011;13104;51.030;4.686;2022-10-28T05:35:59;17.10;;;5.68;;
25123;SDS011;13104;51.030;4.686;2022-10-28T05:38:26;20.33;;;5.95;;
25123;SDS011;13104;51.030;4.686;2022-10-28T05:40:52;14.38;;;5.30;;
25123;SDS011;13104;51.030;4.686;2022-10-28T05:43:18;11.48;;;5.22;;
25123;SDS011;13104;51.030;4.686;2022-10-28T05:45:50;13.98;;;5.05;;
25123;SDS011;13104;51.030;4.686;2022-10-28T05:48:16;10.73;;;4.82;;
25123;SDS011;13104;51.030;4.686;2022-10-28T05:50:42;14.60;;;5.05;;
25123;SDS011;13104;51.030;4.686;2022-10-28T05:53:09;11.05;;;5.10;;
25123;SDS011;13104;51.030;4.686;2022-10-28T05:55:35;17.63;;;5.20;;
25123;SDS011;13104;51.030;4.686;2022-10-28T05:58:01;13.63;;;4.72;;
25123;SDS011;13104;51.030;4.686;2022-10-28T06:00:27;15.82;;;4.95;;
25123;SDS011;13104;51.030;4.686;2022-10-28T06:03:08;17.45;;;5.15;;
25123;SDS011;13104;51.030;4.686;2022-10-28T06:05:40;13.93;;;4.40;;
25123;SDS011;13104;51.030;4.686;2022-10-28T06:08:06;19.35;;;4.45;;
25123;SDS011;13104;51.030;4.686;2022-10-28T06:10:32;13.25;;;4.93;;
25123;SDS011;13104;51.030;4.686;2022-10-28T06:12:58;17.02;;;5.00;;
25123;SDS011;13104;51.030;4.686;2022-10-28T06:15:25;43.08;;;5.68;;
25123;SDS011;13104;51.030;4.686;2022-10-28T06:17:51;13.32;;;4.22;;
25123;SDS011;13104;51.030;4.686;2022-10-28T06:20:17;12.52;;;4.63;;
25123;SDS011;13104;51.030;4.686;2022-10-28T06:22:50;12.13;;;5.00;;
25123;SDS011;13104;51.030;4.686;2022-10-28T06:25:16;17.38;;;5.47;;
25123;SDS011;13104;51.030;4.686;2022-10-28T06:27:43;19.17;;;4.35;;
25123;SDS011;13104;51.030;4.686;2022-10-28T06:30:09;11.23;;;4.53;;
25123;SDS011;13104;51.030;4.686;2022-10-28T06:32:36;12.48;;;4.53;;
25123;SDS011;13104;51.030;4.686;2022-10-28T06:35:02;12.73;;;4.85;;
25123;SDS011;13104;51.030;4.686;2022-10-28T06:37:28;14.38;;;5.55;;
25123;SDS011;13104;51.030;4.686;2022-10-28T06:39:54;17.67;;;5.40;;
25123;SDS011;13104;51.030;4.686;2022-10-28T06:42:22;11.32;;;4.88;;
25123;SDS011;13104;51.030;4.686;2022-10-28T06:44:48;18.38;;;5.45;;
25123;SDS011;13104;51.030;4.686;2022-10-28T06:47:16;11.95;;;5.75;;
25123;SDS011;13104;51.030;4.686;2022-10-28T06:49:42;17.17;;;5.65;;
25123;SDS011;13104;51.030;4.686;2022-10-28T06:52:08;15.98;;;5.90;;
25123;SDS011;13104;51.030;4.686;2022-10-28T06:54:34;12.23;;;5.38;;
25123;SDS011;13104;51.030;4.686;2022-10-28T06:57:00;11.98;;;5.20;;
25123;SDS011;13104;51.030;4.686;2022-10-28T06:59:26;19.23;;;5.78;;
25123;SDS011;13104;51.030;4.686;2022-10-28T07:01:52;18.83;;;5.82;;
25123;SDS011;13104;51.030;4.686;2022-10-28T07:04:18;12.55;;;5.63;;
25123;SDS011;13104;51.030;4.686;2022-10-28T07:06:44;12.98;;;5.03;;
25123;SDS011;13104;51.030;4.686;2022-10-28T07:09:13;14.07;;;4.90;;
25123;SDS011;13104;51.030;4.686;2022-10-28T07:11:40;13.75;;;4.97;;
25123;SDS011;13104;51.030;4.686;2022-10-28T07:14:09;14.20;;;5.05;;
25123;SDS011;13104;51.030;4.686;2022-10-28T07:16:35;13.75;;;5.00;;
25123;SDS011;13104;51.030;4.686;2022-10-28T07:19:01;15.48;;;5.82;;
25123;SDS011;13104;51.030;4.686;2022-10-28T07:21:27;14.88;;;5.53;;
25123;SDS011;13104;51.030;4.686;2022-10-28T07:23:54;13.63;;;5.13;;
25123;SDS011;13104;51.030;4.686;2022-10-28T07:26:21;14.27;;;5.93;;
25123;SDS011;13104;51.030;4.686;2022-10-28T07:28:47;19.35;;;6.25;;
25123;SDS011;13104;51.030;4.686;2022-10-28T07:31:13;15.20;;;5.97;;
25123;SDS011;13104;51.030;4.686;2022-10-28T07:33:39;12.45;;;5.93;;
25123;SDS011;13104;51.030;4.686;2022-10-28T07:36:05;13.90;;;6.15;;
25123;SDS011;13104;51.030;4.686;2022-10-28T07:38:32;15.27;;;5.45;;
25123;SDS011;13104;51.030;4.686;2022-10-28T07:41:01;16.63;;;5.53;;
25123;SDS011;13104;51.030;4.686;2022-10-28T07:43:27;20.80;;;6.35;;
25123;SDS011;13104;51.030;4.686;2022-10-28T07:45:54;23.38;;;6.72;;
25123;SDS011;13104;51.030;4.686;2022-10-28T07:48:20;20.35;;;6.93;;
25123;SDS011;13104;51.030;4.686;2022-10-28T07:50:46;23.88;;;7.28;;
25123;SDS011;13104;51.030;4.686;2022-10-28T07:53:13;18.65;;;6.55;;
25123;SDS011;13104;51.030;4.686;2022-10-28T07:55:39;21.33;;;6.43;;
25123;SDS011;13104;51.030;4.686;2022-10-28T07:58:05;18.92;;;6.70;;
25123;SDS011;13104;51.030;4.686;2022-10-28T08:00:31;16.75;;;6.10;;
25123;SDS011;13104;51.030;4.686;2022-10-28T08:02:57;18.73;;;6.75;;
25123;SDS011;13104;51.030;4.686;2022-10-28T08:05:23;21.75;;;6.28;;
25123;SDS011;13104;51.030;4.686;2022-10-28T08:07:49;16.48;;;5.78;;
25123;SDS011;13104;51.030;4.686;2022-10-28T08:10:15;20.35;;;6.00;;
25123;SDS011;13104;51.030;4.686;2022-10-28T08:12:41;13.85;;;6.07;;
25123;SDS011;13104;51.030;4.686;2022-10-28T08:15:08;16.55;;;6.20;;
25123;SDS011;13104;51.030;4.686;2022-10-28T08:17:34;20.10;;;6.03;;
25123;SDS011;13104;51.030;4.686;2022-10-28T08:20:00;19.67;;;5.88;;
25123;SDS011;13104;51.030;4.686;2022-10-28T08:22:26;23.27;;;6.55;;
25123;SDS011;13104;51.030;4.686;2022-10-28T08:24:52;18.52;;;5.90;;
25123;SDS011;13104;51.030;4.686;2022-10-28T08:27:18;19.17;;;6.03;;
25123;SDS011;13104;51.030;4.686;2022-10-28T08:29:44;19.45;;;6.13;;
25123;SDS011;13104;51.030;4.686;2022-10-28T08:32:11;23.67;;;7.07;;
25123;SDS011;13104;51.030;4.686;2022-10-28T08:34:37;19.25;;;6.30;;
25123;SDS011;13104;51.030;4.686;2022-10-28T08:37:03;25.13;;;7.78;;
25123;SDS011;13104;51.030;4.686;2022-10-28T08:39:29;20.75;;;7.43;;
25123;SDS011;13104;51.030;4.686;2022-10-28T08:42:05;23.95;;;6.68;;
25123;SDS011;13104;51.030;4.686;2022-10-28T08:49:48;22.67;;;5.80;;
25123;SDS011;13104;51.030;4.686;2022-10-28T08:54:42;17.08;;;5.90;;
25123;SDS011;13104;51.030;4.686;2022-10-28T08:57:19;13.27;;;5.30;;
25123;SDS011;13104;51.030;4.686;2022-10-28T08:59:46;28.70;;;5.70;;
25123;SDS011;13104;51.030;4.686;2022-10-28T09:02:17;20.90;;;5.35;;
25123;SDS011;13104;51.030;4.686;2022-10-28T09:04:46;19.85;;;5.32;;
25123;SDS011;13104;51.030;4.686;2022-10-28T09:07:20;13.73;;;5.35;;
25123;SDS011;13104;51.030;4.686;2022-10-28T09:09:47;19.55;;;5.80;;
25123;SDS011;13104;51.030;4.686;2022-10-28T09:17:12;19.67;;;5.68;;
25123;SDS011;13104;51.030;4.686;2022-10-28T09:19:48;17.42;;;5.82;;
25123;SDS011;13104;51.030;4.686;2022-10-28T09:24:45;18.67;;;5.63;;
25123;SDS011;13104;51.030;4.686;2022-10-28T09:29:44;20.73;;;5.20;;
25123;SDS011;13104;51.030;4.686;2022-10-28T09:32:18;18.67;;;4.93;;
25123;SDS011;13104;51.030;4.686;2022-10-28T09:37:18;18.50;;;5.18;;
25123;SDS011;13104;51.030;4.686;2022-10-28T09:39:49;19.73;;;4.95;;
25123;SDS011;13104;51.030;4.686;2022-10-28T09:42:36;21.73;;;5.32;;
25123;SDS011;13104;51.030;4.686;2022-10-28T09:45:05;16.60;;;5.63;;
25123;SDS011;13104;51.030;4.686;2022-10-28T09:47:39;18.13;;;4.72;;
25123;SDS011;13104;51.030;4.686;2022-10-28T09:50:13;16.55;;;5.03;;
25123;SDS011;13104;51.030;4.686;2022-10-28T09:52:53;21.40;;;5.47;;
25123;SDS011;13104;51.030;4.686;2022-10-28T09:55:21;15.32;;;5.20;;
25123;SDS011;13104;51.030;4.686;2022-10-28T09:57:47;17.23;;;5.28;;
25123;SDS011;13104;51.030;4.686;2022-10-28T10:00:14;24.05;;;5.03;;
25123;SDS011;13104;51.030;4.686;2022-10-28T10:02:41;20.77;;;5.07;;
25123;SDS011;13104;51.030;4.686;2022-10-28T10:05:11;13.60;;;4.65;;
25123;SDS011;13104;51.030;4.686;2022-10-28T10:07:39;19.58;;;5.43;;
25123;SDS011;13104;51.030;4.686;2022-10-28T10:10:12;19.70;;;4.95;;
25123;SDS011;13104;51.030;4.686;2022-10-28T10:12:38;18.27;;;5.32;;
25123;SDS011;13104;51.030;4.686;2022-10-28T10:15:04;17.23;;;4.45;;
25123;SDS011;13104;51.030;4.686;2022-10-28T10:17:42;15.68;;;4.60;;
25123;SDS011;13104;51.030;4.686;2022-10-28T10:20:10;19.40;;;4.43;;
25123;SDS011;13104;51.030;4.686;2022-10-28T10:22:38;16.15;;;4.78;;
25123;SDS011;13104;51.030;4.686;2022-10-28T10:30:23;13.75;;;4.38;;
25123;SDS011;13104;51.030;4.686;2022-10-28T10:32:50;18.55;;;4.43;;
25123;SDS011;13104;51.030;4.686;2022-10-28T10:35:24;19.80;;;4.85;;
25123;SDS011;13104;51.030;4.686;2022-10-28T10:37:51;14.48;;;5.10;;
25123;SDS011;13104;51.030;4.686;2022-10-28T10:40:25;23.88;;;4.50;;
25123;SDS011;13104;51.030;4.686;2022-10-28T10:42:55;15.95;;;4.28;;
25123;SDS011;13104;51.030;4.686;2022-10-28T10:45:22;22.58;;;4.70;;
25123;SDS011;13104;51.030;4.686;2022-10-28T10:48:00;21.40;;;4.90;;
25123;SDS011;13104;51.030;4.686;2022-10-28T10:50:30;16.20;;;4.30;;
25123;SDS011;13104;51.030;4.686;2022-10-28T10:52:57;18.80;;;4.43;;
25123;SDS011;13104;51.030;4.686;2022-10-28T10:55:30;18.00;;;3.92;;
25123;SDS011;13104;51.030;4.686;2022-10-28T10:57:57;23.05;;;4.65;;
25123;SDS011;13104;51.030;4.686;2022-10-28T11:00:24;16.83;;;3.92;;
25123;SDS011;13104;51.030;4.686;2022-10-28T11:02:53;14.43;;;4.30;;
25123;SDS011;13104;51.030;4.686;2022-10-28T11:05:20;15.80;;;3.88;;
25123;SDS011;13104;51.030;4.686;2022-10-28T11:07:47;12.95;;;3.80;;
25123;SDS011;13104;51.030;4.686;2022-10-28T11:10:25;13.88;;;4.25;;
25123;SDS011;13104;51.030;4.686;2022-10-28T11:12:52;15.80;;;3.90;;
25123;SDS011;13104;51.030;4.686;2022-10-28T11:15:23;14.23;;;3.80;;
25123;SDS011;13104;51.030;4.686;2022-10-28T11:17:54;22.35;;;4.03;;
25123;SDS011;13104;51.030;4.686;2022-10-28T11:20:24;19.90;;;4.50;;
25123;SDS011;13104;51.030;4.686;2022-10-28T11:28:08;17.52;;;3.80;;
25123;SDS011;13104;51.030;4.686;2022-10-28T11:36:05;15.93;;;4.18;;
25123;SDS011;13104;51.030;4.686;2022-10-28T11:38:37;16.58;;;4.22;;
25123;SDS011;13104;51.030;4.686;2022-10-28T11:41:16;15.65;;;4.10;;
25123;SDS011;13104;51.030;4.686;2022-10-28T11:43:54;22.35;;;4.75;;
25123;SDS011;13104;51.030;4.686;2022-10-28T11:51:25;17.83;;;4.00;;
25123;SDS011;13104;51.030;4.686;2022-10-28T11:54:02;24.40;;;4.60;;
25123;SDS011;13104;51.030;4.686;2022-10-28T11:56:36;17.15;;;3.70;;
25123;SDS011;13104;51.030;4.686;2022-10-28T11:59:42;15.80;;;3.88;;
25123;SDS011;13104;51.030;4.686;2022-10-28T12:04:37;13.82;;;3.90;;
25123;SDS011;13104;51.030;4.686;2022-10-28T12:12:16;22.77;;;4.82;;
25123;SDS011;13104;51.030;4.686;2022-10-28T12:17:27;11.43;;;3.83;;
25123;SDS011;13104;51.030;4.686;2022-10-28T12:19:57;18.75;;;4.57;;
25123;SDS011;13104;51.030;4.686;2022-10-28T12:22:29;16.38;;;3.97;;
25123;SDS011;13104;51.030;4.686;2022-10-28T12:24:57;26.33;;;4.28;;
25123;SDS011;13104;51.030;4.686;2022-10-28T12:27:27;14.68;;;3.85;;
25123;SDS011;13104;51.030;4.686;2022-10-28T12:29:58;19.58;;;3.90;;
25123;SDS011;13104;51.030;4.686;2022-10-28T12:32:27;17.25;;;3.28;;
25123;SDS011;13104;51.030;4.686;2022-10-28T12:34:57;18.85;;;4.07;;
25123;SDS011;13104;51.030;4.686;2022-10-28T12:37:38;12.73;;;3.75;;
25123;SDS011;13104;51.030;4.686;2022-10-28T12:40:11;15.27;;;3.85;;
25123;SDS011;13104;51.030;4.686;2022-10-28T12:42:41;20.88;;;4.57;;
25123;SDS011;13104;51.030;4.686;2022-10-28T12:45:10;16.52;;;3.90;;
25123;SDS011;13104;51.030;4.686;2022-10-28T12:47:54;14.68;;;4.28;;
25123;SDS011;13104;51.030;4.686;2022-10-28T12:50:25;13.55;;;3.83;;
25123;SDS011;13104;51.030;4.686;2022-10-28T12:55:40;14.10;;;4.10;;
25123;SDS011;13104;51.030;4.686;2022-10-28T12:58:12;16.95;;;4.00;;
25123;SDS011;13104;51.030;4.686;2022-10-28T13:00:41;14.27;;;3.50;;
25123;SDS011;13104;51.030;4.686;2022-10-28T13:03:11;23.85;;;3.75;;
25123;SDS011;13104;51.030;4.686;2022-10-28T13:08:22;18.92;;;3.40;;
25123;SDS011;13104;51.030;4.686;2022-10-28T13:13:22;16.08;;;4.10;;
25123;SDS011;13104;51.030;4.686;2022-10-28T13:15:54;11.73;;;4.00;;
25123;SDS011;13104;51.030;4.686;2022-10-28T13:23:42;15.63;;;3.92;;
25123;SDS011;13104;51.030;4.686;2022-10-28T13:26:28;16.48;;;3.80;;
25123;SDS011;13104;51.030;4.686;2022-10-28T13:28:56;11.85;;;3.75;;
25123;SDS011;13104;51.030;4.686;2022-10-28T13:31:34;15.93;;;3.53;;
25123;SDS011;13104;51.030;4.686;2022-10-28T13:34:01;12.18;;;3.33;;
25123;SDS011;13104;51.030;4.686;2022-10-28T13:36:28;10.38;;;3.78;;
25123;SDS011;13104;51.030;4.686;2022-10-28T13:38:59;21.17;;;4.25;;
25123;SDS011;13104;51.030;4.686;2022-10-28T13:41:30;15.50;;;3.50;;
25123;SDS011;13104;51.030;4.686;2022-10-28T13:43:58;14.55;;;3.33;;
25123;SDS011;13104;51.030;4.686;2022-10-28T13:49:22;15.40;;;3.42;;
25123;SDS011;13104;51.030;4.686;2022-10-28T13:51:49;15.07;;;3.30;;
25123;SDS011;13104;51.030;4.686;2022-10-28T13:54:30;13.43;;;3.05;;
25123;SDS011;13104;51.030;4.686;2022-10-28T13:57:01;14.95;;;3.53;;
25123;SDS011;13104;51.030;4.686;2022-10-28T13:59:28;11.93;;;3.40;;
25123;SDS011;13104;51.030;4.686;2022-10-28T14:01:56;15.57;;;3.45;;
25123;SDS011;13104;51.030;4.686;2022-10-28T14:09:29;20.77;;;3.78;;
25123;SDS011;13104;51.030;4.686;2022-10-28T14:12:10;10.35;;;3.03;;
25123;SDS011;13104;51.030;4.686;2022-10-28T14:14:37;17.88;;;3.90;;
25123;SDS011;13104;51.030;4.686;2022-10-28T14:17:04;10.02;;;3.17;;
25123;SDS011;13104;51.030;4.686;2022-10-28T14:19:30;19.42;;;3.53;;
25123;SDS011;13104;51.030;4.686;2022-10-28T14:21:58;15.18;;;3.72;;
25123;SDS011;13104;51.030;4.686;2022-10-28T14:24:29;14.82;;;3.55;;
25123;SDS011;13104;51.030;4.686;2022-10-28T14:50:14;9.82;;;3.30;;
25123;SDS011;13104;51.030;4.686;2022-10-28T14:52:35;11.57;;;4.00;;
25123;SDS011;13104;51.030;4.686;2022-10-28T14:55:02;14.23;;;3.78;;
25123;SDS011;13104;51.030;4.686;2022-10-28T14:57:30;22.95;;;3.72;;
25123;SDS011;13104;51.030;4.686;2022-10-28T14:59:59;15.02;;;3.60;;
25123;SDS011;13104;51.030;4.686;2022-10-28T15:02:27;14.50;;;3.55;;
25123;SDS011;13104;51.030;4.686;2022-10-28T15:04:58;12.98;;;3.45;;
25123;SDS011;13104;51.030;4.686;2022-10-28T15:07:26;15.48;;;3.63;;
25123;SDS011;13104;51.030;4.686;2022-10-28T15:09:52;13.10;;;3.50;;
25123;SDS011;13104;51.030;4.686;2022-10-28T15:12:20;14.38;;;3.47;;
25123;SDS011;13104;51.030;4.686;2022-10-28T15:14:51;18.55;;;3.75;;
25123;SDS011;13104;51.030;4.686;2022-10-28T15:17:19;16.25;;;3.92;;
25123;SDS011;13104;51.030;4.686;2022-10-28T15:19:46;14.38;;;3.28;;
25123;SDS011;13104;51.030;4.686;2022-10-28T15:22:23;14.82;;;3.65;;
25123;SDS011;13104;51.030;4.686;2022-10-28T15:27:18;10.00;;;3.40;;
25123;SDS011;13104;51.030;4.686;2022-10-28T15:29:45;11.32;;;3.35;;
25123;SDS011;13104;51.030;4.686;2022-10-28T15:34:44;15.73;;;3.90;;
25123;SDS011;13104;51.030;4.686;2022-10-28T15:37:21;12.50;;;3.53;;
25123;SDS011;13104;51.030;4.686;2022-10-28T15:39:48;12.70;;;3.58;;
25123;SDS011;13104;51.030;4.686;2022-10-28T15:42:35;18.17;;;4.28;;
25123;SDS011;13104;51.030;4.686;2022-10-28T15:45:02;11.50;;;3.38;;
25123;SDS011;13104;51.030;4.686;2022-10-28T15:47:29;8.77;;;3.30;;
25123;SDS011;13104;51.030;4.686;2022-10-28T15:50:42;14.30;;;3.85;;
25123;SDS011;13104;51.030;4.686;2022-10-28T15:52:44;12.10;;;3.90;;
25123;SDS011;13104;51.030;4.686;2022-10-28T15:57:48;16.45;;;4.53;;
25123;SDS011;13104;51.030;4.686;2022-10-28T16:02:53;13.07;;;4.10;;
25123;SDS011;13104;51.030;4.686;2022-10-28T16:08:02;15.52;;;3.90;;
25123;SDS011;13104;51.030;4.686;2022-10-28T16:10:33;17.13;;;3.70;;
25123;SDS011;13104;51.030;4.686;2022-10-28T16:13:00;9.65;;;3.97;;
25123;SDS011;13104;51.030;4.686;2022-10-28T16:15:27;12.32;;;4.35;;
25123;SDS011;13104;51.030;4.686;2022-10-28T16:17:53;15.15;;;4.45;;
25123;SDS011;13104;51.030;4.686;2022-10-28T16:20:19;16.60;;;4.75;;
25123;SDS011;13104;51.030;4.686;2022-10-28T16:22:47;26.90;;;4.78;;
25123;SDS011;13104;51.030;4.686;2022-10-28T16:25:14;17.08;;;4.85;;
25123;SDS011;13104;51.030;4.686;2022-10-28T16:27:40;15.18;;;4.43;;
25123;SDS011;13104;51.030;4.686;2022-10-28T16:30:07;15.82;;;4.55;;
25123;SDS011;13104;51.030;4.686;2022-10-28T16:32:35;15.13;;;4.00;;
25123;SDS011;13104;51.030;4.686;2022-10-28T16:35:02;13.48;;;3.92;;
25123;SDS011;13104;51.030;4.686;2022-10-28T16:37:30;13.63;;;4.15;;
25123;SDS011;13104;51.030;4.686;2022-10-28T16:39:56;11.35;;;3.70;;
25123;SDS011;13104;51.030;4.686;2022-10-28T16:42:22;14.15;;;5.43;;
25123;SDS011;13104;51.030;4.686;2022-10-28T16:44:49;17.98;;;5.65;;
25123;SDS011;13104;51.030;4.686;2022-10-28T16:47:16;45.55;;;7.32;;
25123;SDS011;13104;51.030;4.686;2022-10-28T16:49:42;16.90;;;7.13;;
25123;SDS011;13104;51.030;4.686;2022-10-28T16:52:28;16.08;;;6.07;;
25123;SDS011;13104;51.030;4.686;2022-10-28T16:54:54;25.05;;;6.43;;
25123;SDS011;13104;51.030;4.686;2022-10-28T16:57:21;22.23;;;9.25;;
25123;SDS011;13104;51.030;4.686;2022-10-28T16:59:47;16.25;;;5.82;;
25123;SDS011;13104;51.030;4.686;2022-10-28T17:02:14;16.60;;;5.38;;